Stations météo

réclame
Mon MeteoGroup
Hano, Suède (2628): Température de l'air & dewpoint: 17.04.2018 04:00:00 - 23.04.2018 04:00:00 (CEST)Hano, Suède (2628): Vitesse du vent & gusts: 17.04.2018 04:00:00 - 23.04.2018 04:00:00 (CEST)Hano, Suède (2628): Direction du vent: 17.04.2018 04:00:00 - 23.04.2018 04:00:00 (CEST)Hano, Suède (2628): visibility: 17.04.2018 04:00:00 - 23.04.2018 04:00:00 (CEST)Hano, Suède (2628): Quantités de précipitations: 17.04.2018 04:00:00 - 23.04.2018 04:00:00 (CEST)
Date & Time tt [°C] td [°C] ff [km/h] ff [knt] fx [km/h] fx [knt] dd vv [km] rr [mm]
23.04.2018 04:00:00 - - - - - - - - -
23.04.2018 03:00:00 4,8 3,8 23 12 28 15 ESE 13 0,0
23.04.2018 02:00:00 4,7 4,3 20 11 26 14 ESE 7 0,0
23.04.2018 01:00:00 4,7 4,4 15 8 22 12 E 4,0 0,0
23.04.2018 00:00:00 4,6 4,3 14 8 22 12 ESE 3,5 0,0
22.04.2018 23:00:00 4,8 4,4 18 10 22 12 SE 4,6 0,0
22.04.2018 22:00:00 4,7 4,4 16 9 25 13 SE 5 0,0
22.04.2018 21:00:00 5,1 4,5 18 10 25 13 SE 7 0,0
22.04.2018 20:00:00 5,1 4,5 18 10 23 13 ESE 8 0,0
22.04.2018 19:00:00 5,8 4,8 16 9 26 14 SE 10 0,0
22.04.2018 18:00:00 7,3 4,8 14 8 26 14 SE 14 0,0
22.04.2018 17:00:00 9,8 3,7 19 11 26 14 SSW 22 0,0
22.04.2018 16:00:00 10,6 4,7 19 11 25 14 SSW 26 0,0
22.04.2018 15:00:00 12,1 4,1 15 8 22 12 S 33 0,0
22.04.2018 14:00:00 11,9 5,5 11 6 16 9 SSW 20 0,0
22.04.2018 13:00:00 11,5 6,2 8 4 18 10 SW 19 0,0
22.04.2018 12:00:00 10,2 6,0 10 5 18 10 WSW 16 0,0
22.04.2018 11:00:00 8,2 5,3 10 5 - - WSW 14 -
22.04.2018 10:00:00 - - - - - - - - -
22.04.2018 09:00:00 6,6 4,3 10 5 16 9 NNW 21 0,0
22.04.2018 08:00:00 6,8 4,3 9 5 21 11 NW 18 0,0
22.04.2018 07:00:00 5,7 4,3 13 7 22 12 W 13 0,0
22.04.2018 06:00:00 5,2 3,9 19 11 26 14 WNW 15 0,0
22.04.2018 05:00:00 5,6 3,8 18 10 29 15 WNW 18 0,0
22.04.2018 04:00:00 5,9 3,6 22 12 29 15 WNW 21 0,0
22.04.2018 03:00:00 6,6 3,0 20 11 29 16 WNW 25 0,0
22.04.2018 02:00:00 7,0 2,7 16 9 38 20 WNW 26 0,0
22.04.2018 01:00:00 7,9 2,4 24 13 38 20 WNW 30 0,0
22.04.2018 00:00:00 8,6 2,4 29 16 43 23 WNW 29 0,0
21.04.2018 23:00:00 9,2 2,7 29 16 48 26 WNW 29 0,0
21.04.2018 22:00:00 10,1 3,1 36 20 48 26 WNW 29 0,0
21.04.2018 21:00:00 10,8 2,6 31 17 49 26 WNW 33 0,0
21.04.2018 20:00:00 12,0 2,4 34 18 55 30 WNW 32 0,0
21.04.2018 19:00:00 13,2 1,8 39 21 56 30 WNW 30 0,0
21.04.2018 18:00:00 14,1 2,3 35 19 58 32 WNW 28 0,0
21.04.2018 17:00:00 15,3 1,4 43 23 58 32 WNW 31 0,0
21.04.2018 16:00:00 15,7 1,4 45 24 58 31 WNW 33 0,0
21.04.2018 15:00:00 16,6 1,1 40 22 56 30 WNW 25 0,0
21.04.2018 14:00:00 16,4 1,3 42 23 56 30 WNW 28 0,0
21.04.2018 13:00:00 16,1 2,8 33 18 47 25 WNW 25 0,0
21.04.2018 12:00:00 15,3 4,1 23 12 50 27 WNW 25 0,0
21.04.2018 11:00:00 - - - - 50 27 - - -
21.04.2018 10:00:00 12,4 3,9 36 20 49 26 WNW 21 0,0
21.04.2018 09:00:00 11,2 4,0 32 17 50 27 WNW 22 0,0
21.04.2018 08:00:00 10,0 3,9 37 20 50 27 NW 22 0,0
21.04.2018 07:00:00 9,2 4,0 34 18 45 25 WNW 14 0,0
21.04.2018 06:00:00 9,1 4,9 36 19 45 25 WNW 12 0,0
21.04.2018 05:00:00 9,8 5,8 34 18 47 26 WNW 11 0,0
21.04.2018 04:00:00 10,4 6,4 35 19 49 26 WNW 11 0,0
21.04.2018 03:00:00 11,5 7,2 39 21 51 28 WNW 11 0,0
21.04.2018 02:00:00 12,7 8,0 38 21 53 29 WNW 10 0,0
21.04.2018 01:00:00 14,4 8,1 42 23 53 29 WNW 11 0,0
21.04.2018 00:00:00 15,4 9,5 40 21 48 26 WNW 9 0,0
20.04.2018 23:00:00 10,3 8,2 33 18 37 20 W 7 0,0
20.04.2018 22:00:00 9,0 7,1 29 15 34 18 WSW 7 0,0
20.04.2018 21:00:00 9,7 7,6 29 16 - - WSW 9 0,0
20.04.2018 20:00:00 9,1 7,1 28 15 46 25 SW 9 0,0
20.04.2018 19:00:00 12,5 9,1 31 17 49 26 SSW 11 0,0
20.04.2018 18:00:00 14,6 10,6 37 20 49 26 SSW 12 0,0
20.04.2018 17:00:00 12,0 9,4 36 19 49 26 SSW 10 0,0
20.04.2018 16:00:00 13,4 9,3 31 17 41 22 SSW 12 0,0
20.04.2018 15:00:00 12,0 8,8 28 15 41 22 SSW 11 0,0
20.04.2018 14:00:00 11,7 8,5 22 12 33 18 SSW 11 0,0
20.04.2018 13:00:00 11,2 8,6 24 13 34 18 SSW 10 0,0
20.04.2018 12:00:00 11,1 9,0 21 12 34 19 SSW 9 0,0
20.04.2018 11:00:00 9,0 7,4 23 13 34 19 SSW 11 0,0
20.04.2018 10:00:00 8,7 7,5 22 12 29 16 SSW 10 0,0
20.04.2018 09:00:00 8,9 7,7 21 11 29 16 SW 4,1 0,0
20.04.2018 08:00:00 7,6 7,0 22 12 29 16 SW 2,4 0,0
20.04.2018 07:00:00 6,9 6,3 17 9 26 14 SW 2,0 0,0
20.04.2018 06:00:00 6,9 6,6 22 12 25 13 SW 1,9 0,0
20.04.2018 05:00:00 6,9 6,3 12 6 17 9 WSW 3,6 0,0
20.04.2018 04:00:00 8,0 6,5 7 4 17 9 W 4,3 0,0
20.04.2018 03:00:00 9,5 8,1 14 8 17 9 W 6 0,0
20.04.2018 02:00:00 7,3 7,0 7 4 13 7 NW 6 0,0
20.04.2018 01:00:00 10,5 8,4 11 6 26 14 NW 7 0,0
20.04.2018 00:00:00 6,9 6,2 10 6 27 14 W 4,9 0,0
19.04.2018 23:00:00 5,8 5,5 24 13 30 16 SW 2,6 0,0
19.04.2018 22:00:00 6,3 6,0 23 13 32 18 SW 3,0 0,0
19.04.2018 21:00:00 6,7 6,3 26 14 38 20 SW 3,1 0,0
19.04.2018 20:00:00 7,7 6,8 27 14 38 20 SW 3,9 0,0
19.04.2018 19:00:00 9,3 7,6 28 15 38 20 SSW 6 0,0
19.04.2018 18:00:00 11,5 8,9 26 14 38 20 SSW 8 0,0
19.04.2018 17:00:00 12,4 9,2 21 12 29 15 SW 10 0,0
19.04.2018 16:00:00 13,2 9,8 21 12 26 14 SSW 15 0,0
19.04.2018 15:00:00 16,4 10,9 11 6 21 11 SW 25 0,0
19.04.2018 14:00:00 16,3 10,8 12 7 21 12 NNW 31 0,0
19.04.2018 13:00:00 15,3 10,5 14 8 29 15 N 27 0,0
19.04.2018 12:00:00 13,7 10,3 15 8 29 15 NNW 22 0,0
19.04.2018 11:00:00 12,6 10,0 21 12 31 17 NNW 16 0,0
19.04.2018 10:00:00 12,0 10,1 24 13 31 17 NW 12 0,0
19.04.2018 09:00:00 11,2 9,8 21 12 33 18 NNW 9 0,0
19.04.2018 08:00:00 10,5 9,1 26 14 33 18 NNW 9 0,0
19.04.2018 07:00:00 10,3 9,1 26 14 34 18 NNW 9 0,0
19.04.2018 06:00:00 10,3 9,2 24 13 34 18 NNW 8 0,0
19.04.2018 05:00:00 10,1 8,9 21 12 29 16 NNW 9 0,0
19.04.2018 04:00:00 11,0 9,1 21 12 29 16 NW 11 0,0
19.04.2018 03:00:00 10,3 8,9 21 12 27 14 WNW 10 0,0
19.04.2018 02:00:00 10,3 8,6 18 10 29 16 W 12 0,0
19.04.2018 01:00:00 12,1 9,1 22 12 29 16 WNW 15 0,0
19.04.2018 00:00:00 11,8 8,8 23 13 31 17 WNW 15 0,0
18.04.2018 23:00:00 12,7 9,2 24 13 35 19 WNW 16 0,0
18.04.2018 22:00:00 13,6 9,4 26 14 39 21 WNW 17 0,0
18.04.2018 21:00:00 14,3 9,3 31 17 41 22 WNW 19 0,0
18.04.2018 20:00:00 14,7 9,1 28 15 42 23 WNW 21 0,0
18.04.2018 19:00:00 16,1 9,1 29 16 42 23 WNW 26 0,0
18.04.2018 18:00:00 16,5 9,4 29 16 51 28 WNW 26 0,0
18.04.2018 17:00:00 17,0 9,4 27 15 51 28 W 23 0,0
18.04.2018 16:00:00 17,4 9,8 32 18 48 26 WNW 24 0,0
18.04.2018 15:00:00 11,6 7,1 23 12 44 24 W 13 0,0
18.04.2018 14:00:00 10,7 6,4 23 12 44 24 SW 10 0,0
18.04.2018 13:00:00 11,1 6,4 24 13 44 24 SW 12 0,0
18.04.2018 12:00:00 11,1 5,8 32 17 44 24 SW 13 0,0
18.04.2018 11:00:00 10,2 5,6 32 17 38 21 SW 14 0,0
18.04.2018 10:00:00 9,7 5,3 29 16 37 20 WSW 14 0,0
18.04.2018 09:00:00 7,9 5,4 29 15 35 19 SW 13 0,0
18.04.2018 08:00:00 7,6 5,2 24 13 29 15 WSW 12 0,0
18.04.2018 07:00:00 7,1 5,2 19 11 27 15 WSW 10 0,0
18.04.2018 06:00:00 7,0 5,5 25 14 27 15 WSW 10 0,0
18.04.2018 05:00:00 6,6 5,4 20 11 25 13 WSW 10 0,0
18.04.2018 04:00:00 7,0 5,6 16 9 24 13 WSW 11 0,0
18.04.2018 03:00:00 6,5 5,4 18 10 22 12 WSW 11 0,0
18.04.2018 02:00:00 7,6 5,7 16 9 22 12 WSW 13 0,0
18.04.2018 01:00:00 7,1 5,6 16 9 19 11 WSW 14 0,0
18.04.2018 00:00:00 8,6 5,5 9 5 22 12 W 18 0,0
17.04.2018 23:00:00 9,2 5,4 14 8 27 14 WNW 20 0,0
17.04.2018 22:00:00 9,7 5,3 18 10 27 15 WNW 22 0,0
17.04.2018 21:00:00 10,5 5,1 21 12 33 18 W 27 0,0
17.04.2018 20:00:00 11,2 4,9 23 13 33 18 WNW 29 0,0
17.04.2018 19:00:00 12,3 6,1 16 9 31 17 W 27 0,0
17.04.2018 18:00:00 11,1 5,8 8 4 36 19 NNW 23 0,0
17.04.2018 17:00:00 12,3 6,8 30 16 36 19 WNW 22 0,0
17.04.2018 16:00:00 11,7 6,8 25 14 36 19 W 20 0,0
17.04.2018 15:00:00 13,3 7,7 26 14 36 19 W 18 0,0
17.04.2018 14:00:00 12,2 8,3 20 11 31 17 W 10 0,0
17.04.2018 13:00:00 9,8 7,6 19 10 27 14 WSW 8 0,0
17.04.2018 12:00:00 9,8 7,6 8 5 16 9 SW 11 0,0
17.04.2018 11:00:00 8,4 7,0 12 6 16 9 SW 14 0,0
17.04.2018 10:00:00 8,2 6,7 12 6 14 8 WSW 15 0,1
17.04.2018 09:00:00 7,6 6,1 9 5 11 6 SW 14 0,0
17.04.2018 08:00:00 8,9 6,5 5 3 10 5 W 20 0,0
17.04.2018 07:00:00 8,8 6,1 3 2 14 7 NW 22 0,0
17.04.2018 06:00:00 8,7 6,1 8 4 14 8 WNW 22 0,0
17.04.2018 05:00:00 7,5 6,1 12 7 14 8 WNW 17 0,0
17.04.2018 04:00:00 8,0 6,3 10 5 14 8 NNW 24 0,0

tt = Température de l'air
td = dewpoint
ff = Vitesse du vent
fx = gusts
dd = Direction du vent
vv = visibility
rr = Quantités de précipitations

stations d'obs. à proximité